createdAt,value
2019-03-26T00:02:12.353Z,3.33
2019-03-26T00:04:41.280Z,3.80
2019-03-26T00:07:10.116Z,5.57
2019-03-26T00:09:38.959Z,14.10
2019-03-26T00:12:08.051Z,16.53
2019-03-26T00:14:36.887Z,14.97
2019-03-26T00:17:05.732Z,16.03
2019-03-26T00:19:34.637Z,14.87
2019-03-26T00:22:11.349Z,12.90
2019-03-26T00:24:43.284Z,13.40
2019-03-26T00:27:16.664Z,12.80
2019-03-26T00:29:45.494Z,13.13
2019-03-26T00:32:14.375Z,16.47
2019-03-26T00:34:43.215Z,12.00
2019-03-26T00:37:12.057Z,10.33
2019-03-26T00:39:40.961Z,13.30
2019-03-26T00:42:09.810Z,12.43
2019-03-26T00:44:38.642Z,12.57
2019-03-26T00:47:07.551Z,12.17
2019-03-26T00:49:41.031Z,12.63
2019-03-26T00:52:09.874Z,10.50
2019-03-26T00:54:38.868Z,10.27
2019-03-26T00:57:07.704Z,10.83
2019-03-26T00:59:36.562Z,10.00
2019-03-26T01:02:05.470Z,9.77
2019-03-26T01:04:34.309Z,9.00
2019-03-26T01:07:03.169Z,10.03
2019-03-26T01:09:32.065Z,9.43
2019-03-26T01:12:00.914Z,10.70
2019-03-26T01:14:29.960Z,9.57
2019-03-26T01:16:58.831Z,10.07
2019-03-26T01:19:27.667Z,9.80
2019-03-26T01:21:56.502Z,10.23
2019-03-26T01:24:25.399Z,11.10
2019-03-26T01:26:54.252Z,11.10
2019-03-26T01:29:23.217Z,8.87
2019-03-26T01:31:52.105Z,8.87
2019-03-26T01:34:20.930Z,9.47
2019-03-26T01:36:49.762Z,8.80
2019-03-26T01:39:18.646Z,9.17
2019-03-26T01:41:47.474Z,11.13
2019-03-26T01:44:16.327Z,9.17
2019-03-26T01:46:45.221Z,9.20
2019-03-26T01:49:14.145Z,7.67
2019-03-26T01:51:45.878Z,8.23
2019-03-26T01:54:14.870Z,11.47
2019-03-26T01:56:43.786Z,10.17
2019-03-26T01:59:12.674Z,12.00
2019-03-26T02:01:41.533Z,14.37
2019-03-26T02:04:10.361Z,19.30
2019-03-26T02:06:39.206Z,20.87
2019-03-26T02:09:08.238Z,22.00
2019-03-26T02:11:37.095Z,22.20
2019-03-26T02:14:05.940Z,22.30
2019-03-26T02:16:35.719Z,22.60
2019-03-26T02:19:04.552Z,21.47
2019-03-26T02:21:33.335Z,21.87
2019-03-26T02:24:02.192Z,21.40
2019-03-26T02:26:31.055Z,19.70
2019-03-26T02:28:59.896Z,21.50
2019-03-26T02:31:28.809Z,23.20
2019-03-26T02:33:57.670Z,26.90
2019-03-26T02:36:27.990Z,22.53
2019-03-26T02:38:56.865Z,19.40
2019-03-26T02:41:25.706Z,17.07
2019-03-26T02:43:54.539Z,26.93
2019-03-26T02:46:23.423Z,24.70
2019-03-26T02:48:52.258Z,25.70
2019-03-26T02:51:21.111Z,28.30
2019-03-26T02:53:50.031Z,26.30
2019-03-26T02:56:18.869Z,25.37
2019-03-26T02:58:47.766Z,27.07
2019-03-26T03:01:16.623Z,26.87
2019-03-26T03:03:45.469Z,25.17
2019-03-26T03:06:14.295Z,25.50
2019-03-26T03:08:43.200Z,26.93
2019-03-26T03:11:12.056Z,28.83
2019-03-26T03:13:40.884Z,26.80
2019-03-26T03:16:09.813Z,28.20
2019-03-26T03:18:39.521Z,29.87
2019-03-26T03:21:08.367Z,26.97
2019-03-26T03:23:37.453Z,25.83
2019-03-26T03:26:06.278Z,27.80
2019-03-26T03:28:35.126Z,27.50
2019-03-26T03:31:04.003Z,23.03
2019-03-26T03:33:32.851Z,21.00
2019-03-26T03:36:01.697Z,14.17
2019-03-26T03:38:30.586Z,12.87
2019-03-26T03:40:59.426Z,10.13
2019-03-26T03:43:28.259Z,8.80
2019-03-26T03:45:57.143Z,8.30
2019-03-26T03:48:26.290Z,9.17
2019-03-26T03:50:56.527Z,8.20
2019-03-26T03:53:26.519Z,8.43
2019-03-26T03:55:58.656Z,8.07
2019-03-26T03:58:29.065Z,9.03
2019-03-26T04:00:57.969Z,7.97
2019-03-26T04:03:26.810Z,8.07
2019-03-26T04:06:08.222Z,6.00
2019-03-26T04:08:26.191Z,6.57
2019-03-26T04:10:55.017Z,5.70
2019-03-26T04:13:23.866Z,6.57
2019-03-26T04:15:52.751Z,6.77
2019-03-26T04:18:21.586Z,6.70
2019-03-26T04:20:50.432Z,6.83
2019-03-26T04:23:19.351Z,7.03
2019-03-26T04:25:48.194Z,6.47
2019-03-26T04:28:17.042Z,6.87
2019-03-26T04:30:45.957Z,6.50
2019-03-26T04:33:14.807Z,7.27
2019-03-26T04:35:43.739Z,7.03
2019-03-26T04:38:12.628Z,8.07
2019-03-26T04:40:41.467Z,8.30
2019-03-26T04:43:10.301Z,8.47
2019-03-26T04:45:39.212Z,9.30
2019-03-26T04:48:08.039Z,8.63
2019-03-26T04:50:36.880Z,9.43
2019-03-26T04:53:05.778Z,9.53
2019-03-26T04:55:34.807Z,9.50
2019-03-26T04:58:03.654Z,9.93
2019-03-26T05:00:32.634Z,10.40
2019-03-26T05:03:01.466Z,8.63
2019-03-26T05:05:30.314Z,8.33
2019-03-26T05:07:59.211Z,9.77
2019-03-26T05:10:28.053Z,10.23
2019-03-26T05:12:56.896Z,10.90
2019-03-26T05:15:25.798Z,11.67
2019-03-26T05:17:56.675Z,13.73
2019-03-26T05:20:25.133Z,16.03
2019-03-26T05:22:54.837Z,17.07
2019-03-26T05:25:23.681Z,15.60
2019-03-26T05:27:52.520Z,17.20
2019-03-26T05:30:21.426Z,18.53
2019-03-26T05:32:50.257Z,19.60
2019-03-26T05:35:19.108Z,20.97
2019-03-26T05:37:48.006Z,22.80
2019-03-26T05:40:16.876Z,24.17
2019-03-26T05:42:45.695Z,21.10
2019-03-26T05:45:14.968Z,18.60
2019-03-26T05:47:43.808Z,19.13
2019-03-26T05:50:13.347Z,20.00
2019-03-26T05:52:42.270Z,17.70
2019-03-26T05:55:11.417Z,19.50
2019-03-26T05:57:40.281Z,17.67
2019-03-26T06:00:13.147Z,18.30
2019-03-26T06:02:41.978Z,18.13
2019-03-26T06:05:10.825Z,18.70
2019-03-26T06:07:39.713Z,19.17
2019-03-26T06:10:09.742Z,18.33
2019-03-26T06:12:38.582Z,17.63
2019-03-26T06:15:08.515Z,14.87
2019-03-26T06:17:37.333Z,16.13
2019-03-26T06:20:07.370Z,16.23
2019-03-26T06:22:36.240Z,19.37
2019-03-26T06:25:07.788Z,16.17
2019-03-26T06:27:36.603Z,19.73
2019-03-26T06:30:08.476Z,15.20
2019-03-26T06:32:37.434Z,15.40
2019-03-26T06:35:08.576Z,16.10
2019-03-26T06:37:37.593Z,14.77
2019-03-26T06:40:08.831Z,15.30
2019-03-26T06:42:37.674Z,15.37
2019-03-26T06:45:11.089Z,16.13
2019-03-26T06:47:39.934Z,15.93
2019-03-26T06:50:10.468Z,14.87
2019-03-26T06:52:39.645Z,12.80
2019-03-26T06:55:09.476Z,11.17
2019-03-26T06:57:38.387Z,12.23
2019-03-26T07:00:10.283Z,13.13
2019-03-26T07:02:39.438Z,12.63
2019-03-26T07:05:08.787Z,12.50
2019-03-26T07:07:37.716Z,12.67
2019-03-26T07:10:08.665Z,12.07
2019-03-26T07:12:37.510Z,12.30
2019-03-26T07:15:27.168Z,13.07
2019-03-26T07:17:57.995Z,12.10
2019-03-26T07:20:26.841Z,13.93
2019-03-26T07:22:56.300Z,14.83
2019-03-26T07:25:26.030Z,12.37
2019-03-26T07:27:54.894Z,13.93
2019-03-26T07:30:40.942Z,12.60
2019-03-26T07:33:09.979Z,11.63
2019-03-26T07:35:38.914Z,12.27
2019-03-26T07:38:07.853Z,11.73
2019-03-26T07:40:36.713Z,13.97
2019-03-26T07:43:06.068Z,11.53
2019-03-26T07:45:35.159Z,7.70
2019-03-26T07:48:03.998Z,9.03
2019-03-26T07:50:32.823Z,6.77
2019-03-26T07:53:01.942Z,6.17
2019-03-26T07:55:30.740Z,6.27
2019-03-26T07:57:59.612Z,5.50
2019-03-26T08:00:33.554Z,5.87
2019-03-26T08:03:02.382Z,5.13
2019-03-26T08:05:31.223Z,4.57
2019-03-26T08:08:00.113Z,4.80
2019-03-26T08:10:28.965Z,4.53
2019-03-26T08:12:57.902Z,5.27
2019-03-26T08:15:26.845Z,5.43
2019-03-26T08:17:55.724Z,5.27
2019-03-26T08:20:24.569Z,4.83
2019-03-26T08:22:53.488Z,5.00
2019-03-26T08:25:22.315Z,4.57
2019-03-26T08:27:51.159Z,4.93
2019-03-26T08:30:20.053Z,5.43
2019-03-26T08:32:48.915Z,5.40
2019-03-26T08:35:17.748Z,5.17
2019-03-26T08:37:46.623Z,6.10
2019-03-26T08:40:15.567Z,4.43
2019-03-26T08:42:44.418Z,4.60
2019-03-26T08:45:13.533Z,5.67
2019-03-26T08:47:42.387Z,5.27
2019-03-26T08:50:11.439Z,6.03
2019-03-26T08:52:40.319Z,6.17
2019-03-26T08:55:10.349Z,6.17
2019-03-26T08:57:39.194Z,6.73
2019-03-26T09:00:10.183Z,6.00
2019-03-26T09:02:39.006Z,5.93
2019-03-26T09:05:08.441Z,5.93
2019-03-26T09:07:38.284Z,5.60
2019-03-26T09:10:09.849Z,6.67
2019-03-26T09:12:39.698Z,5.43
2019-03-26T09:15:14.236Z,5.53
2019-03-26T09:17:44.348Z,5.60
2019-03-26T09:20:13.526Z,6.07
2019-03-26T09:22:42.433Z,5.77
2019-03-26T09:25:11.468Z,5.47
2019-03-26T09:27:40.312Z,5.27
2019-03-26T09:30:11.414Z,8.40
2019-03-26T09:32:40.487Z,17.57
2019-03-26T09:35:10.117Z,6.70
2019-03-26T09:37:39.003Z,5.67
2019-03-26T09:40:09.452Z,8.70
2019-03-26T09:42:38.792Z,7.97
2019-03-26T09:45:10.005Z,7.13
2019-03-26T09:47:38.937Z,8.13
2019-03-26T09:50:12.452Z,6.97
2019-03-26T09:52:41.334Z,6.80
2019-03-26T09:55:10.788Z,5.33
2019-03-26T09:57:39.639Z,6.17
2019-03-26T10:00:10.902Z,6.23
2019-03-26T10:02:42.807Z,12.40
2019-03-26T10:05:10.329Z,6.73
2019-03-26T10:07:39.225Z,7.27
2019-03-26T10:10:08.865Z,5.67
2019-03-26T10:12:37.710Z,6.33
2019-03-26T10:15:09.969Z,6.17
2019-03-26T10:17:38.820Z,6.43
2019-03-26T10:20:08.978Z,6.57
2019-03-26T10:22:39.335Z,6.00
2019-03-26T10:25:11.272Z,6.13
2019-03-26T10:27:40.055Z,6.77
2019-03-26T10:30:11.702Z,7.10
2019-03-26T10:32:40.852Z,6.50
2019-03-26T10:35:10.989Z,5.80
2019-03-26T10:37:39.887Z,6.83
2019-03-26T10:40:09.937Z,6.43
2019-03-26T10:42:38.758Z,6.50
2019-03-26T10:45:08.161Z,6.67
2019-03-26T10:47:36.991Z,6.07
2019-03-26T10:50:07.300Z,5.97
2019-03-26T10:52:36.179Z,6.57
2019-03-26T10:55:06.340Z,6.20
2019-03-26T10:57:35.565Z,5.50
2019-03-26T11:00:06.742Z,6.20
2019-03-26T11:02:35.662Z,6.47
2019-03-26T11:05:06.640Z,6.43
2019-03-26T11:07:35.527Z,6.57
2019-03-26T11:10:07.234Z,6.23
2019-03-26T11:12:36.066Z,6.77
2019-03-26T11:15:09.427Z,5.60
2019-03-26T11:17:38.264Z,6.27
2019-03-26T11:20:07.492Z,5.83
2019-03-26T11:22:36.491Z,6.10
2019-03-26T11:25:11.812Z,5.90
2019-03-26T11:27:39.133Z,5.97
2019-03-26T11:30:08.801Z,6.33
2019-03-26T11:32:37.946Z,6.30
2019-03-26T11:35:09.003Z,5.80
2019-03-26T11:37:39.149Z,6.00
2019-03-26T11:40:09.096Z,5.87
2019-03-26T11:42:37.922Z,5.70
2019-03-26T11:45:08.703Z,7.30
2019-03-26T11:47:38.760Z,6.07
2019-03-26T11:50:08.393Z,6.53
2019-03-26T11:52:38.178Z,6.60
2019-03-26T11:55:08.729Z,5.80
2019-03-26T11:57:37.572Z,5.73
2019-03-26T12:00:09.233Z,6.50
2019-03-26T12:02:38.081Z,5.93
2019-03-26T12:05:08.430Z,6.10
2019-03-26T12:07:37.918Z,5.70
2019-03-26T12:10:08.925Z,6.30
2019-03-26T12:12:38.560Z,6.03
2019-03-26T12:15:08.678Z,5.63
2019-03-26T12:17:37.467Z,5.27
2019-03-26T12:20:08.541Z,5.80
2019-03-26T12:22:37.392Z,5.97
2019-03-26T12:25:07.237Z,5.10
2019-03-26T12:27:36.753Z,5.80
2019-03-26T12:30:10.561Z,5.20
2019-03-26T12:32:41.071Z,5.67
2019-03-26T12:35:11.717Z,6.00
2019-03-26T12:37:41.409Z,5.77
2019-03-26T12:40:10.282Z,5.03
2019-03-26T12:42:39.158Z,5.67
2019-03-26T12:45:08.300Z,4.87
2019-03-26T12:47:37.147Z,5.80
2019-03-26T12:50:07.740Z,5.47
2019-03-26T12:52:36.577Z,5.17
2019-03-26T12:55:06.406Z,5.50
2019-03-26T12:57:35.350Z,5.90
2019-03-26T13:00:05.986Z,5.87
2019-03-26T13:02:36.088Z,5.27
2019-03-26T13:05:07.094Z,5.40
2019-03-26T13:07:35.916Z,5.10
2019-03-26T13:10:13.994Z,5.30
2019-03-26T13:12:38.785Z,5.23
2019-03-26T13:15:08.424Z,6.13
2019-03-26T13:17:37.251Z,5.90
2019-03-26T13:20:07.137Z,5.57
2019-03-26T13:22:35.999Z,5.40
2019-03-26T13:25:06.846Z,5.03
2019-03-26T13:27:35.749Z,5.10
2019-03-26T13:30:06.675Z,5.17
2019-03-26T13:32:35.523Z,4.57
2019-03-26T13:35:08.949Z,5.03
2019-03-26T13:37:37.796Z,5.73
2019-03-26T13:40:07.074Z,5.83
2019-03-26T13:42:35.949Z,5.47
2019-03-26T13:45:06.592Z,5.03
2019-03-26T13:47:35.436Z,5.30
2019-03-26T13:50:07.869Z,5.33
2019-03-26T13:52:36.702Z,5.13
2019-03-26T13:55:09.326Z,6.33
2019-03-26T13:57:39.245Z,6.03
2019-03-26T14:00:10.363Z,5.60
2019-03-26T14:02:39.239Z,5.63
2019-03-26T14:05:25.445Z,5.17
2019-03-26T14:07:54.274Z,5.37
2019-03-26T14:10:23.126Z,4.83
2019-03-26T14:12:52.041Z,6.10
2019-03-26T14:15:20.899Z,5.50
2019-03-26T14:17:49.770Z,5.70
2019-03-26T14:20:19.164Z,5.20
2019-03-26T14:22:48.010Z,4.80
2019-03-26T14:25:16.847Z,4.97
2019-03-26T14:27:45.750Z,5.40
2019-03-26T14:30:15.302Z,5.50
2019-03-26T14:32:44.183Z,5.73
2019-03-26T14:35:13.192Z,5.77
2019-03-26T14:37:51.113Z,6.20
2019-03-26T14:40:12.743Z,7.97
2019-03-26T14:42:41.666Z,6.33
2019-03-26T14:45:10.632Z,6.93
2019-03-26T14:47:39.487Z,6.73
2019-03-26T14:50:08.924Z,9.00
2019-03-26T14:52:37.742Z,7.27
2019-03-26T14:55:08.188Z,7.27
2019-03-26T14:57:37.096Z,8.27
2019-03-26T15:00:07.353Z,6.73
2019-03-26T15:02:36.313Z,7.83
2019-03-26T15:05:06.922Z,6.40
2019-03-26T15:07:35.779Z,7.57
2019-03-26T15:10:06.218Z,5.47
2019-03-26T15:12:35.126Z,7.47
2019-03-26T15:15:05.162Z,5.93
2019-03-26T15:17:34.043Z,6.07
2019-03-26T15:20:03.065Z,5.53
2019-03-26T15:22:31.919Z,5.23
2019-03-26T15:25:00.761Z,5.87
2019-03-26T15:27:29.640Z,5.63
2019-03-26T15:29:58.498Z,6.17
2019-03-26T15:32:27.355Z,6.50
2019-03-26T15:34:56.244Z,6.30
2019-03-26T15:37:25.112Z,6.13
2019-03-26T15:39:54.014Z,6.03
2019-03-26T15:42:23.034Z,5.30
2019-03-26T15:44:51.898Z,6.03
2019-03-26T15:47:20.760Z,6.80
2019-03-26T15:49:49.685Z,7.20
2019-03-26T15:52:18.538Z,8.30
2019-03-26T15:54:47.398Z,6.40
2019-03-26T15:57:16.293Z,6.07
2019-03-26T15:59:45.143Z,6.17
2019-03-26T16:02:14.078Z,6.20
2019-03-26T16:04:42.991Z,6.43
2019-03-26T16:07:11.845Z,5.63
2019-03-26T16:09:40.696Z,6.20
2019-03-26T16:12:09.602Z,7.43
2019-03-26T16:14:38.453Z,10.63
2019-03-26T16:17:07.299Z,10.77
2019-03-26T16:19:36.696Z,10.83
2019-03-26T16:22:05.710Z,10.60
2019-03-26T16:24:34.571Z,8.50
2019-03-26T16:27:03.516Z,9.40
2019-03-26T16:29:32.354Z,8.10
2019-03-26T16:32:01.206Z,18.43
2019-03-26T16:34:30.099Z,9.97
2019-03-26T16:37:00.077Z,17.80
2019-03-26T16:39:29.131Z,10.17
2019-03-26T16:41:58.039Z,19.73
2019-03-26T16:44:26.896Z,9.20
2019-03-26T16:46:55.787Z,12.13
2019-03-26T16:49:24.812Z,13.27
2019-03-26T16:51:53.720Z,9.00
2019-03-26T16:54:22.567Z,8.90
2019-03-26T16:56:51.490Z,9.97
2019-03-26T16:59:20.322Z,9.80
2019-03-26T17:01:49.188Z,9.40
2019-03-26T17:04:18.070Z,10.87
2019-03-26T17:06:47.309Z,11.30
2019-03-26T17:09:16.150Z,11.03
2019-03-26T17:11:45.072Z,11.37
2019-03-26T17:14:13.924Z,11.10
2019-03-26T17:16:42.790Z,9.93
2019-03-26T17:19:11.685Z,9.83
2019-03-26T17:21:40.550Z,10.60
2019-03-26T17:24:09.406Z,10.97
2019-03-26T17:26:38.303Z,12.33
2019-03-26T17:29:07.165Z,16.53
2019-03-26T17:31:36.036Z,25.07
2019-03-26T17:34:05.039Z,35.03
2019-03-26T17:36:33.860Z,112.63
2019-03-26T17:39:02.697Z,107.30
2019-03-26T17:41:31.597Z,92.23
2019-03-26T17:44:00.453Z,88.97
2019-03-26T17:46:29.702Z,102.73
2019-03-26T17:48:58.635Z,137.03
2019-03-26T17:51:27.503Z,169.73
2019-03-26T17:53:56.365Z,173.70
2019-03-26T17:56:25.300Z,190.30
2019-03-26T17:58:54.163Z,185.63
2019-03-26T18:01:23.017Z,175.27
2019-03-26T18:03:52.525Z,126.97
2019-03-26T18:06:21.407Z,92.47
2019-03-26T18:08:50.276Z,164.30
2019-03-26T18:11:19.186Z,153.93
2019-03-26T18:13:48.041Z,142.03
2019-03-26T18:16:16.867Z,147.20
2019-03-26T18:18:45.979Z,107.13
2019-03-26T18:21:14.834Z,83.27
2019-03-26T18:23:43.694Z,93.20
2019-03-26T18:26:12.582Z,129.20
2019-03-26T18:28:41.427Z,128.40
2019-03-26T18:31:10.279Z,122.73
2019-03-26T18:33:39.176Z,94.80
2019-03-26T18:36:08.041Z,112.07
2019-03-26T18:38:36.915Z,112.70
2019-03-26T18:41:05.927Z,169.80
2019-03-26T18:43:34.782Z,156.27
2019-03-26T18:46:03.642Z,114.73
2019-03-26T18:48:32.526Z,101.77
2019-03-26T18:51:01.488Z,94.73
2019-03-26T18:53:30.336Z,107.30
2019-03-26T18:55:59.265Z,110.50
2019-03-26T18:58:28.111Z,104.10
2019-03-26T19:00:57.465Z,105.83
2019-03-26T19:03:26.534Z,102.70
2019-03-26T19:05:55.407Z,102.23
2019-03-26T19:08:24.267Z,95.93
2019-03-26T19:10:53.183Z,91.50
2019-03-26T19:13:22.034Z,95.37
2019-03-26T19:15:50.881Z,93.93
2019-03-26T19:18:19.785Z,85.00
2019-03-26T19:21:01.007Z,78.00
2019-03-26T19:23:19.151Z,74.87
2019-03-26T19:25:48.171Z,72.87
2019-03-26T19:28:17.578Z,86.80
2019-03-26T19:30:46.439Z,88.10
2019-03-26T19:33:15.344Z,78.27
2019-03-26T19:35:44.193Z,64.17
2019-03-26T19:38:13.049Z,67.23
2019-03-26T19:40:41.947Z,63.23
2019-03-26T19:43:11.744Z,67.70
2019-03-26T19:45:40.840Z,66.57
2019-03-26T19:48:09.754Z,81.27
2019-03-26T19:50:38.608Z,86.17
2019-03-26T19:53:07.465Z,82.63
2019-03-26T19:55:36.375Z,96.77
2019-03-26T19:58:05.260Z,110.93
2019-03-26T20:00:34.184Z,111.37
2019-03-26T20:03:03.728Z,128.30
2019-03-26T20:05:35.219Z,125.70
2019-03-26T20:08:03.078Z,114.47
2019-03-26T20:10:32.007Z,110.27
2019-03-26T20:13:00.889Z,96.83
2019-03-26T20:15:29.805Z,97.93
2019-03-26T20:17:58.703Z,96.63
2019-03-26T20:20:27.558Z,93.70
2019-03-26T20:22:56.412Z,68.50
2019-03-26T20:25:25.329Z,67.53
2019-03-26T20:27:54.180Z,67.43
2019-03-26T20:30:23.559Z,74.10
2019-03-26T20:32:52.566Z,81.60
2019-03-26T20:35:21.425Z,81.53
2019-03-26T20:37:50.272Z,81.20
2019-03-26T20:40:19.276Z,138.93
2019-03-26T20:42:48.121Z,99.23
2019-03-26T20:45:18.616Z,94.20
2019-03-26T20:47:47.518Z,105.10
2019-03-26T20:50:16.466Z,86.37
2019-03-26T20:52:45.330Z,88.57
2019-03-26T20:55:15.840Z,88.93
2019-03-26T20:57:45.297Z,138.30
2019-03-26T21:00:17.097Z,110.53
2019-03-26T21:02:46.024Z,106.80
2019-03-26T21:05:14.903Z,115.47
2019-03-26T21:07:43.804Z,83.63
2019-03-26T21:10:12.681Z,93.17
2019-03-26T21:12:41.622Z,87.53
2019-03-26T21:15:10.927Z,85.17
2019-03-26T21:17:39.883Z,101.83
2019-03-26T21:20:10.328Z,116.10
2019-03-26T21:22:39.183Z,117.00
2019-03-26T21:25:09.685Z,103.53
2019-03-26T21:27:38.545Z,99.60
2019-03-26T21:30:15.110Z,107.17
2019-03-26T21:32:40.848Z,107.07
2019-03-26T21:35:10.112Z,126.67
2019-03-26T21:37:39.474Z,123.83
2019-03-26T21:40:10.168Z,124.00
2019-03-26T21:42:39.028Z,107.80
2019-03-26T21:45:10.259Z,102.97
2019-03-26T21:47:39.143Z,104.30
2019-03-26T21:50:08.502Z,109.63
2019-03-26T21:52:37.373Z,112.80
2019-03-26T21:55:08.709Z,138.50
2019-03-26T21:57:38.392Z,135.93
2019-03-26T22:00:09.134Z,146.67
2019-03-26T22:02:38.036Z,152.13
2019-03-26T22:05:10.311Z,156.47
2019-03-26T22:07:39.180Z,130.27
2019-03-26T22:10:08.900Z,136.80
2019-03-26T22:12:42.563Z,143.97
2019-03-26T22:15:14.069Z,143.20
2019-03-26T22:17:43.934Z,144.00
2019-03-26T22:20:19.117Z,153.53
2019-03-26T22:22:51.117Z,152.77
2019-03-26T22:25:21.511Z,147.87
2019-03-26T22:27:50.452Z,128.67
2019-03-26T22:30:19.601Z,115.63
2019-03-26T22:32:48.443Z,121.53
2019-03-26T22:35:17.579Z,82.10
2019-03-26T22:37:46.442Z,57.50
2019-03-26T22:40:15.398Z,37.33
2019-03-26T22:42:44.297Z,37.73
2019-03-26T22:45:13.449Z,22.13
2019-03-26T22:47:42.291Z,10.57
2019-03-26T22:50:11.950Z,10.80
2019-03-26T22:52:40.962Z,9.77
2019-03-26T22:55:10.822Z,9.07
2019-03-26T22:57:39.726Z,7.67
2019-03-26T23:00:16.034Z,7.90
2019-03-26T23:02:45.116Z,7.80
2019-03-26T23:05:18.660Z,7.10
2019-03-26T23:07:47.527Z,6.47
2019-03-26T23:10:16.950Z,8.07
2019-03-26T23:12:45.815Z,7.30
2019-03-26T23:15:20.283Z,7.27
2019-03-26T23:17:49.352Z,7.20
2019-03-26T23:20:18.304Z,8.10
2019-03-26T23:22:47.502Z,7.70
2019-03-26T23:25:16.761Z,7.37
2019-03-26T23:27:45.600Z,8.20
2019-03-26T23:30:14.942Z,8.13
2019-03-26T23:32:43.784Z,8.03
2019-03-26T23:35:12.828Z,7.73
2019-03-26T23:37:41.721Z,7.83
2019-03-26T23:40:10.968Z,8.80
2019-03-26T23:42:39.818Z,9.13
2019-03-26T23:45:09.095Z,9.87
2019-03-26T23:47:37.948Z,9.47
2019-03-26T23:50:08.099Z,10.10
2019-03-26T23:52:37.517Z,10.40
2019-03-26T23:55:09.460Z,10.63
2019-03-26T23:57:38.311Z,11.00
